Time;durP1;ratioP1;P1;durP2;ratioP2;P2;SDS_P1;SDS_P2;PMS_P1;PMS_P2;Temp;Humidity;BMP_temperature;BMP_pressure;BME280_temperature;BME280_humidity;BME280_pressure;Samples;Min_cycle;Max_cycle;Signal;HPM_P1;HPM_P2
2021/12/14 00:00:11;;;;;;;;;;;4.2;85.2;;;;;;;;;
2021/12/14 00:05:07;;;;;;;;;;;4.1;84.9;;;;;;;;;
2021/12/14 00:10:16;;;;;;;;;;;4.2;85.2;;;;;;;;;
2021/12/14 00:15:09;;;;;;;;;;;4.1;85.1;;;;;;;;;
2021/12/14 00:20:12;;;;;;;;;;;4.0;84.2;;;;;;;;;
2021/12/14 00:25:07;;;;;;;;;;;4.0;84.3;;;;;;;;;
2021/12/14 00:30:07;;;;;;;;;;;4.0;84.2;;;;;;;;;
2021/12/14 00:35:12;;;;;;;;;;;4.0;83.1;;;;;;;;;
2021/12/14 00:40:09;;;;;;;;;;;3.8;84.4;;;;;;;;;
2021/12/14 00:45:07;;;;;;;;;;;3.6;84.4;;;;;;;;;
2021/12/14 00:50:08;;;;;;;;;;;3.6;84.9;;;;;;;;;
2021/12/14 00:55:08;;;;;;;;;;;3.6;84.6;;;;;;;;;
2021/12/14 01:00:08;;;;;;;;;;;3.6;84.5;;;;;;;;;
2021/12/14 01:05:10;;;;;;;;;;;3.7;84.6;;;;;;;;;
2021/12/14 01:10:11;;;;;;;;;;;3.6;83.4;;;;;;;;;
2021/12/14 01:15:23;;;;;;;;;;;3.4;82.8;;;;;;;;;
2021/12/14 01:20:11;;;;;;;;;;;3.4;83.2;;;;;;;;;
2021/12/14 01:25:12;;;;;;;;;;;3.2;82.3;;;;;;;;;
2021/12/14 01:30:13;;;;;;;;;;;2.8;83.0;;;;;;;;;
2021/12/14 01:35:12;;;;;;;;;;;3.0;81.7;;;;;;;;;
2021/12/14 01:40:17;;;;;;;;;;;2.9;83.0;;;;;;;;;
2021/12/14 01:45:10;;;;;;;;;;;3.0;81.8;;;;;;;;;
2021/12/14 01:50:09;;;;;;;;;;;2.9;81.1;;;;;;;;;
2021/12/14 01:55:09;;;;;;;;;;;2.9;82.4;;;;;;;;;
2021/12/14 02:00:10;;;;;;;;;;;2.8;82.1;;;;;;;;;
2021/12/14 02:05:14;;;;;;;;;;;2.8;81.9;;;;;;;;;
2021/12/14 02:10:09;;;;;;;;;;;2.7;80.4;;;;;;;;;
2021/12/14 02:15:09;;;;;;;;;;;2.5;80.7;;;;;;;;;
2021/12/14 02:20:08;;;;;;;;;;;2.4;80.9;;;;;;;;;
2021/12/14 02:25:09;;;;;;;;;;;2.4;81.9;;;;;;;;;
2021/12/14 02:30:08;;;;;;;;;;;2.4;81.4;;;;;;;;;
2021/12/14 02:35:09;;;;;;;;;;;2.5;82.1;;;;;;;;;
2021/12/14 02:40:16;;;;;;;;;;;2.4;82.6;;;;;;;;;
2021/12/14 02:45:08;;;;;;;;;;;2.5;83.1;;;;;;;;;
2021/12/14 02:50:08;;;;;;;;;;;2.4;83.5;;;;;;;;;
2021/12/14 02:55:10;;;;;;;;;;;2.4;84.5;;;;;;;;;
2021/12/14 03:00:09;;;;;;;;;;;2.4;83.9;;;;;;;;;
2021/12/14 03:05:08;;;;;;;;;;;2.5;83.7;;;;;;;;;
2021/12/14 03:10:20;;;;;;;;;;;2.5;82.9;;;;;;;;;
2021/12/14 03:15:08;;;;;;;;;;;2.3;83.1;;;;;;;;;
2021/12/14 03:20:10;;;;;;;;;;;2.2;83.2;;;;;;;;;
2021/12/14 03:25:08;;;;;;;;;;;2.2;83.7;;;;;;;;;
2021/12/14 03:30:16;;;;;;;;;;;2.2;85.1;;;;;;;;;
2021/12/14 03:35:07;;;;;;;;;;;2.3;84.6;;;;;;;;;
2021/12/14 03:40:07;;;;;;;;;;;2.5;84.3;;;;;;;;;
2021/12/14 03:45:08;;;;;;;;;;;2.5;84.3;;;;;;;;;
2021/12/14 03:50:10;;;;;;;;;;;2.4;84.4;;;;;;;;;
2021/12/14 03:55:10;;;;;;;;;;;2.3;85.5;;;;;;;;;
2021/12/14 04:00:09;;;;;;;;;;;2.3;85.4;;;;;;;;;
2021/12/14 04:05:11;;;;;;;;;;;2.4;85.7;;;;;;;;;
2021/12/14 04:10:10;;;;;;;;;;;2.5;85.6;;;;;;;;;
2021/12/14 04:20:09;;;;;;;;;;;2.5;85.5;;;;;;;;;
2021/12/14 04:25:09;;;;;;;;;;;2.5;85.1;;;;;;;;;
2021/12/14 04:30:08;;;;;;;;;;;2.5;85.2;;;;;;;;;
2021/12/14 04:35:07;;;;;;;;;;;2.6;84.8;;;;;;;;;
2021/12/14 04:40:19;;;;;;;;;;;2.5;84.4;;;;;;;;;
2021/12/14 05:00:15;;;;;;;;;;;2.5;84.1;;;;;;;;;
2021/12/14 05:05:07;;;;;;;;;;;2.5;84.4;;;;;;;;;
2021/12/14 05:10:08;;;;;;;;;;;2.3;84.6;;;;;;;;;
2021/12/14 05:15:11;;;;;;;;;;;2.3;84.5;;;;;;;;;
2021/12/14 05:20:10;;;;;;;;;;;2.4;84.4;;;;;;;;;
2021/12/14 05:25:10;;;;;;;;;;;2.3;84.2;;;;;;;;;
2021/12/14 05:30:09;;;;;;;;;;;2.1;83.8;;;;;;;;;
2021/12/14 05:35:09;;;;;;;;;;;2.3;84.7;;;;;;;;;
2021/12/14 05:40:16;;;;;;;;;;;2.3;83.8;;;;;;;;;
2021/12/14 05:45:09;;;;;;;;;;;2.3;84.3;;;;;;;;;
2021/12/14 05:50:07;;;;;;;;;;;2.2;84.0;;;;;;;;;
2021/12/14 05:55:08;;;;;;;;;;;2.2;84.3;;;;;;;;;
2021/12/14 06:00:09;;;;;;;;;;;2.1;85.3;;;;;;;;;
2021/12/14 06:05:12;;;;;;;;;;;2.2;84.9;;;;;;;;;
2021/12/14 06:10:07;;;;;;;;;;;2.2;84.5;;;;;;;;;
2021/12/14 06:15:09;;;;;;;;;;;2.1;84.9;;;;;;;;;
2021/12/14 06:20:09;;;;;;;;;;;2.1;84.8;;;;;;;;;
2021/12/14 06:25:10;;;;;;;;;;;1.9;85.4;;;;;;;;;
2021/12/14 06:30:09;;;;;;;;;;;2.1;85.8;;;;;;;;;
2021/12/14 06:35:09;;;;;;;;;;;2.1;86.0;;;;;;;;;
2021/12/14 06:40:10;;;;;;;;;;;2.0;85.1;;;;;;;;;
2021/12/14 06:45:10;;;;;;;;;;;1.9;83.6;;;;;;;;;
2021/12/14 06:50:09;;;;;;;;;;;1.9;83.5;;;;;;;;;
2021/12/14 06:55:18;;;;;;;;;;;1.9;83.1;;;;;;;;;
2021/12/14 07:00:07;;;;;;;;;;;2.0;82.8;;;;;;;;;
2021/12/14 07:05:07;;;;;;;;;;;1.9;83.1;;;;;;;;;
2021/12/14 07:10:07;;;;;;;;;;;1.9;82.6;;;;;;;;;
2021/12/14 07:15:11;;;;;;;;;;;2.0;81.7;;;;;;;;;
2021/12/14 07:20:17;;;;;;;;;;;2.0;82.5;;;;;;;;;
2021/12/14 07:25:08;;;;;;;;;;;2.0;82.2;;;;;;;;;
2021/12/14 07:30:11;;;;;;;;;;;2.0;82.5;;;;;;;;;
2021/12/14 07:35:20;;;;;;;;;;;2.2;81.9;;;;;;;;;
2021/12/14 07:40:07;;;;;;;;;;;2.2;81.7;;;;;;;;;
2021/12/14 07:45:08;;;;;;;;;;;2.4;81.2;;;;;;;;;
2021/12/14 07:50:07;;;;;;;;;;;2.3;81.0;;;;;;;;;
2021/12/14 07:55:10;;;;;;;;;;;2.3;81.6;;;;;;;;;
2021/12/14 08:00:09;;;;;;;;;;;2.2;82.8;;;;;;;;;
2021/12/14 08:05:12;;;;;;;;;;;2.1;82.7;;;;;;;;;
2021/12/14 08:10:08;;;;;;;;;;;2.0;82.6;;;;;;;;;
2021/12/14 08:15:12;;;;;;;;;;;2.0;83.0;;;;;;;;;
2021/12/14 08:20:08;;;;;;;;;;;1.9;82.9;;;;;;;;;
2021/12/14 08:25:08;;;;;;;;;;;2.1;82.8;;;;;;;;;
2021/12/14 08:30:09;;;;;;;;;;;2.2;82.3;;;;;;;;;
2021/12/14 08:35:09;;;;;;;;;;;2.2;82.9;;;;;;;;;
2021/12/14 08:40:09;;;;;;;;;;;2.3;82.5;;;;;;;;;
2021/12/14 08:45:24;;;;;;;;;;;2.4;82.8;;;;;;;;;
2021/12/14 08:50:12;;;;;;;;;;;2.6;83.4;;;;;;;;;
2021/12/14 08:55:08;;;;;;;;;;;2.9;80.3;;;;;;;;;
2021/12/14 09:00:12;;;;;;;;;;;3.1;79.3;;;;;;;;;
2021/12/14 09:05:09;;;;;;;;;;;3.4;79.1;;;;;;;;;
2021/12/14 09:10:10;;;;;;;;;;;3.7;78.2;;;;;;;;;
2021/12/14 09:15:09;;;;;;;;;;;3.6;79.1;;;;;;;;;
2021/12/14 09:20:09;;;;;;;;;;;3.6;79.3;;;;;;;;;
2021/12/14 09:25:08;;;;;;;;;;;4.0;78.7;;;;;;;;;
2021/12/14 09:30:08;;;;;;;;;;;5.1;74.6;;;;;;;;;
2021/12/14 09:35:09;;;;;;;;;;;6.1;70.4;;;;;;;;;
2021/12/14 09:40:10;;;;;;;;;;;6.4;70.0;;;;;;;;;
2021/12/14 09:45:11;;;;;;;;;;;7.0;67.9;;;;;;;;;
2021/12/14 09:50:08;;;;;;;;;;;7.4;66.3;;;;;;;;;
2021/12/14 09:55:09;;;;;;;;;;;6.8;68.7;;;;;;;;;
2021/12/14 10:00:12;;;;;;;;;;;6.6;69.0;;;;;;;;;
2021/12/14 10:05:11;;;;;;;;;;;6.5;71.6;;;;;;;;;
2021/12/14 10:10:10;;;;;;;;;;;6.5;72.7;;;;;;;;;
2021/12/14 10:15:10;;;;;;;;;;;7.1;71.1;;;;;;;;;
2021/12/14 10:20:08;;;;;;;;;;;8.6;65.9;;;;;;;;;
2021/12/14 10:25:09;;;;;;;;;;;7.9;67.2;;;;;;;;;
2021/12/14 10:30:08;;;;;;;;;;;7.8;67.5;;;;;;;;;
2021/12/14 10:35:10;;;;;;;;;;;9.0;64.0;;;;;;;;;
2021/12/14 10:45:07;;;;;;;;;;;9.1;61.9;;;;;;;;;
2021/12/14 10:50:10;;;;;;;;;;;8.0;66.5;;;;;;;;;
2021/12/14 10:55:09;;;;;;;;;;;7.3;69.4;;;;;;;;;
2021/12/14 11:00:09;;;;;;;;;;;6.9;71.0;;;;;;;;;
2021/12/14 11:05:15;;;;;;;;;;;8.9;64.5;;;;;;;;;
2021/12/14 11:10:09;;;;;;;;;;;10.3;60.1;;;;;;;;;
2021/12/14 11:15:10;;;;;;;;;;;9.5;61.3;;;;;;;;;
2021/12/14 11:20:11;;;;;;;;;;;9.0;62.4;;;;;;;;;
2021/12/14 11:25:09;;;;;;;;;;;8.6;64.5;;;;;;;;;
2021/12/14 11:30:10;;;;;;;;;;;8.9;63.3;;;;;;;;;
2021/12/14 11:35:20;;;;;;;;;;;10.4;58.9;;;;;;;;;
2021/12/14 11:40:10;;;;;;;;;;;9.9;58.9;;;;;;;;;
2021/12/14 11:45:09;;;;;;;;;;;9.2;61.7;;;;;;;;;
2021/12/14 11:50:12;;;;;;;;;;;8.3;65.0;;;;;;;;;
2021/12/14 11:55:17;;;;;;;;;;;7.6;66.5;;;;;;;;;
2021/12/14 12:00:09;;;;;;;;;;;7.9;66.4;;;;;;;;;
2021/12/14 12:05:15;;;;;;;;;;;7.7;67.2;;;;;;;;;
2021/12/14 12:10:07;;;;;;;;;;;7.3;68.1;;;;;;;;;
2021/12/14 12:15:09;;;;;;;;;;;7.2;68.5;;;;;;;;;
2021/12/14 12:20:11;;;;;;;;;;;7.0;69.2;;;;;;;;;
2021/12/14 12:25:08;;;;;;;;;;;7.1;69.2;;;;;;;;;
2021/12/14 12:30:12;;;;;;;;;;;7.0;69.0;;;;;;;;;
2021/12/14 12:35:19;;;;;;;;;;;6.7;70.0;;;;;;;;;
2021/12/14 12:40:09;;;;;;;;;;;6.8;70.6;;;;;;;;;
2021/12/14 12:45:22;;;;;;;;;;;6.7;71.4;;;;;;;;;
2021/12/14 12:50:07;;;;;;;;;;;6.7;71.9;;;;;;;;;
2021/12/14 12:55:10;;;;;;;;;;;6.8;71.5;;;;;;;;;
2021/12/14 13:00:12;;;;;;;;;;;6.8;71.0;;;;;;;;;
2021/12/14 13:05:08;;;;;;;;;;;6.8;71.1;;;;;;;;;
2021/12/14 13:10:09;;;;;;;;;;;6.7;71.1;;;;;;;;;
2021/12/14 13:15:27;;;;;;;;;;;6.6;71.4;;;;;;;;;
2021/12/14 13:20:07;;;;;;;;;;;6.6;71.0;;;;;;;;;
2021/12/14 13:25:07;;;;;;;;;;;6.6;71.2;;;;;;;;;
2021/12/14 13:30:09;;;;;;;;;;;6.4;71.4;;;;;;;;;
2021/12/14 13:35:09;;;;;;;;;;;6.4;71.8;;;;;;;;;
2021/12/14 13:40:09;;;;;;;;;;;6.4;72.8;;;;;;;;;
2021/12/14 13:45:09;;;;;;;;;;;6.5;72.5;;;;;;;;;
2021/12/14 13:50:09;;;;;;;;;;;6.5;72.4;;;;;;;;;
2021/12/14 13:55:12;;;;;;;;;;;6.4;71.5;;;;;;;;;
2021/12/14 14:00:09;;;;;;;;;;;6.4;71.1;;;;;;;;;
2021/12/14 14:05:07;;;;;;;;;;;6.4;71.4;;;;;;;;;
2021/12/14 14:10:07;;;;;;;;;;;6.4;71.3;;;;;;;;;
2021/12/14 14:15:12;;;;;;;;;;;6.3;72.5;;;;;;;;;
2021/12/14 14:20:14;;;;;;;;;;;6.4;72.6;;;;;;;;;
2021/12/14 14:25:09;;;;;;;;;;;6.4;72.8;;;;;;;;;
2021/12/14 14:30:34;;;;;;;;;;;6.4;72.6;;;;;;;;;
2021/12/14 14:35:07;;;;;;;;;;;6.4;72.5;;;;;;;;;
2021/12/14 14:40:08;;;;;;;;;;;6.4;72.0;;;;;;;;;
2021/12/14 14:45:12;;;;;;;;;;;6.4;72.0;;;;;;;;;
2021/12/14 14:50:16;;;;;;;;;;;6.4;71.8;;;;;;;;;
2021/12/14 14:55:11;;;;;;;;;;;6.4;71.8;;;;;;;;;
2021/12/14 15:00:10;;;;;;;;;;;6.4;71.9;;;;;;;;;
2021/12/14 15:05:08;;;;;;;;;;;6.4;72.0;;;;;;;;;
2021/12/14 15:10:08;;;;;;;;;;;6.3;72.4;;;;;;;;;
2021/12/14 15:15:09;;;;;;;;;;;6.3;72.5;;;;;;;;;
2021/12/14 15:20:08;;;;;;;;;;;6.3;72.8;;;;;;;;;
2021/12/14 15:25:08;;;;;;;;;;;6.2;72.7;;;;;;;;;
2021/12/14 15:30:18;;;;;;;;;;;6.2;73.0;;;;;;;;;
2021/12/14 15:35:08;;;;;;;;;;;6.2;73.3;;;;;;;;;
2021/12/14 15:40:35;;;;;;;;;;;6.2;73.4;;;;;;;;;
2021/12/14 15:45:08;;;;;;;;;;;6.1;73.8;;;;;;;;;
2021/12/14 15:50:15;;;;;;;;;;;6.1;74.3;;;;;;;;;
2021/12/14 15:55:07;;;;;;;;;;;6.1;73.9;;;;;;;;;
2021/12/14 16:00:08;;;;;;;;;;;6.1;73.7;;;;;;;;;
2021/12/14 16:05:10;;;;;;;;;;;6.1;74.1;;;;;;;;;
2021/12/14 16:10:17;;;;;;;;;;;6.1;74.4;;;;;;;;;
2021/12/14 16:15:10;;;;;;;;;;;6.0;74.6;;;;;;;;;
2021/12/14 16:20:08;;;;;;;;;;;6.0;75.1;;;;;;;;;
2021/12/14 16:25:10;;;;;;;;;;;5.9;75.0;;;;;;;;;
2021/12/14 16:30:17;;;;;;;;;;;5.8;75.7;;;;;;;;;
2021/12/14 16:35:07;;;;;;;;;;;5.7;75.8;;;;;;;;;
2021/12/14 16:40:08;;;;;;;;;;;5.7;76.1;;;;;;;;;
2021/12/14 16:45:10;;;;;;;;;;;5.6;76.5;;;;;;;;;
2021/12/14 16:50:10;;;;;;;;;;;5.6;77.0;;;;;;;;;
2021/12/14 16:55:12;;;;;;;;;;;5.7;76.8;;;;;;;;;
2021/12/14 17:00:12;;;;;;;;;;;5.6;77.2;;;;;;;;;
2021/12/14 17:05:11;;;;;;;;;;;5.6;77.1;;;;;;;;;
2021/12/14 17:10:09;;;;;;;;;;;5.6;77.0;;;;;;;;;
2021/12/14 17:15:14;;;;;;;;;;;5.6;77.3;;;;;;;;;
2021/12/14 17:25:09;;;;;;;;;;;5.4;79.1;;;;;;;;;
2021/12/14 17:30:11;;;;;;;;;;;5.5;79.0;;;;;;;;;
2021/12/14 17:35:09;;;;;;;;;;;5.4;77.7;;;;;;;;;
2021/12/14 17:40:09;;;;;;;;;;;5.5;77.4;;;;;;;;;
2021/12/14 17:45:08;;;;;;;;;;;5.8;78.4;;;;;;;;;
2021/12/14 17:50:10;;;;;;;;;;;5.9;77.2;;;;;;;;;
2021/12/14 17:55:08;;;;;;;;;;;5.8;76.7;;;;;;;;;
2021/12/14 18:00:10;;;;;;;;;;;5.7;76.8;;;;;;;;;
2021/12/14 18:05:10;;;;;;;;;;;5.5;78.0;;;;;;;;;
2021/12/14 18:10:07;;;;;;;;;;;5.5;77.8;;;;;;;;;
2021/12/14 18:15:08;;;;;;;;;;;5.3;78.3;;;;;;;;;
2021/12/14 18:20:15;;;;;;;;;;;5.3;78.6;;;;;;;;;
2021/12/14 18:25:09;;;;;;;;;;;5.3;78.9;;;;;;;;;
2021/12/14 18:30:09;;;;;;;;;;;5.3;78.8;;;;;;;;;
2021/12/14 18:35:10;;;;;;;;;;;5.3;79.0;;;;;;;;;
2021/12/14 18:40:09;;;;;;;;;;;5.2;79.1;;;;;;;;;
2021/12/14 18:45:09;;;;;;;;;;;5.1;79.0;;;;;;;;;
2021/12/14 18:50:10;;;;;;;;;;;5.1;79.9;;;;;;;;;
2021/12/14 18:55:08;;;;;;;;;;;5.2;80.0;;;;;;;;;
2021/12/14 19:00:09;;;;;;;;;;;5.1;79.9;;;;;;;;;
2021/12/14 19:05:10;;;;;;;;;;;5.1;80.0;;;;;;;;;
2021/12/14 19:10:15;;;;;;;;;;;5.2;80.2;;;;;;;;;
2021/12/14 19:15:10;;;;;;;;;;;5.1;80.5;;;;;;;;;
2021/12/14 19:20:08;;;;;;;;;;;5.1;80.3;;;;;;;;;
2021/12/14 19:25:13;;;;;;;;;;;5.1;80.1;;;;;;;;;
2021/12/14 19:30:13;;;;;;;;;;;5.0;80.6;;;;;;;;;
2021/12/14 19:35:10;;;;;;;;;;;5.0;80.5;;;;;;;;;
2021/12/14 19:40:14;;;;;;;;;;;5.0;80.6;;;;;;;;;
2021/12/14 19:45:10;;;;;;;;;;;4.9;81.0;;;;;;;;;
2021/12/14 19:50:13;;;;;;;;;;;4.9;80.2;;;;;;;;;
2021/12/14 19:55:08;;;;;;;;;;;4.9;79.6;;;;;;;;;
2021/12/14 20:00:10;;;;;;;;;;;4.8;80.3;;;;;;;;;
2021/12/14 20:10:11;;;;;;;;;;;4.8;80.8;;;;;;;;;
2021/12/14 20:15:09;;;;;;;;;;;4.7;80.4;;;;;;;;;
2021/12/14 20:20:18;;;;;;;;;;;4.8;80.2;;;;;;;;;
2021/12/14 20:25:09;;;;;;;;;;;4.7;80.5;;;;;;;;;
2021/12/14 20:30:08;;;;;;;;;;;4.6;80.9;;;;;;;;;
2021/12/14 20:35:13;;;;;;;;;;;4.7;80.4;;;;;;;;;
2021/12/14 20:40:11;;;;;;;;;;;4.7;80.8;;;;;;;;;
2021/12/14 20:45:25;;;;;;;;;;;4.6;81.0;;;;;;;;;
2021/12/14 20:50:09;;;;;;;;;;;4.6;80.4;;;;;;;;;
2021/12/14 20:55:09;;;;;;;;;;;4.6;81.0;;;;;;;;;
2021/12/14 21:00:10;;;;;;;;;;;4.6;81.4;;;;;;;;;
2021/12/14 21:05:08;;;;;;;;;;;4.6;81.2;;;;;;;;;
2021/12/14 21:10:09;;;;;;;;;;;4.5;80.7;;;;;;;;;
2021/12/14 21:15:09;;;;;;;;;;;4.5;81.1;;;;;;;;;
2021/12/14 21:20:09;;;;;;;;;;;4.6;81.1;;;;;;;;;
2021/12/14 21:25:12;;;;;;;;;;;4.7;81.0;;;;;;;;;
2021/12/14 21:30:09;;;;;;;;;;;4.6;81.0;;;;;;;;;
2021/12/14 21:35:19;;;;;;;;;;;4.6;81.1;;;;;;;;;
2021/12/14 21:40:09;;;;;;;;;;;4.6;80.8;;;;;;;;;
2021/12/14 21:45:22;;;;;;;;;;;4.6;81.0;;;;;;;;;
2021/12/14 21:50:09;;;;;;;;;;;4.7;80.9;;;;;;;;;
2021/12/14 21:55:09;;;;;;;;;;;4.6;81.3;;;;;;;;;
2021/12/14 22:00:10;;;;;;;;;;;4.6;80.3;;;;;;;;;
2021/12/14 22:05:07;;;;;;;;;;;4.6;81.0;;;;;;;;;
2021/12/14 22:10:08;;;;;;;;;;;4.6;80.7;;;;;;;;;
2021/12/14 22:15:10;;;;;;;;;;;4.5;81.0;;;;;;;;;
2021/12/14 22:20:08;;;;;;;;;;;4.5;81.4;;;;;;;;;
2021/12/14 22:25:08;;;;;;;;;;;4.5;80.9;;;;;;;;;
2021/12/14 22:30:07;;;;;;;;;;;4.4;81.5;;;;;;;;;
2021/12/14 22:35:08;;;;;;;;;;;4.4;81.3;;;;;;;;;
2021/12/14 22:45:07;;;;;;;;;;;4.4;81.5;;;;;;;;;
2021/12/14 22:50:07;;;;;;;;;;;4.3;81.4;;;;;;;;;
2021/12/14 22:55:08;;;;;;;;;;;4.3;81.2;;;;;;;;;
2021/12/14 23:00:10;;;;;;;;;;;4.4;80.9;;;;;;;;;
2021/12/14 23:05:07;;;;;;;;;;;4.4;81.2;;;;;;;;;
2021/12/14 23:10:09;;;;;;;;;;;4.3;81.3;;;;;;;;;
2021/12/14 23:15:10;;;;;;;;;;;4.4;80.8;;;;;;;;;
2021/12/14 23:20:08;;;;;;;;;;;4.4;80.0;;;;;;;;;
2021/12/14 23:25:08;;;;;;;;;;;4.3;80.6;;;;;;;;;
2021/12/14 23:30:10;;;;;;;;;;;4.4;79.9;;;;;;;;;
2021/12/14 23:35:08;;;;;;;;;;;4.3;80.4;;;;;;;;;
2021/12/14 23:40:08;;;;;;;;;;;4.3;80.0;;;;;;;;;
2021/12/14 23:45:10;;;;;;;;;;;4.4;79.7;;;;;;;;;
2021/12/14 23:55:08;;;;;;;;;;;4.3;80.5;;;;;;;;;
